createdAt,value
2023-01-08T00:01:11.386Z,100072.91
2023-01-08T00:03:38.942Z,100067.59
2023-01-08T00:06:08.506Z,100068.25
2023-01-08T00:08:35.324Z,100065.78
2023-01-08T00:11:02.074Z,100059.56
2023-01-08T00:13:28.950Z,100055.13
2023-01-08T00:15:55.855Z,100059.44
2023-01-08T00:18:22.581Z,100047.88
2023-01-08T00:20:49.317Z,100055.13
2023-01-08T00:23:17.408Z,100055.13
2023-01-08T00:25:44.270Z,100060.53
2023-01-08T00:28:10.835Z,100055.19
2023-01-08T00:30:37.798Z,100053.41
2023-01-08T00:33:04.374Z,100050.66
2023-01-08T00:35:30.973Z,100050.75
2023-01-08T00:37:57.548Z,100048.88
2023-01-08T00:40:24.095Z,100054.22
2023-01-08T00:42:50.634Z,100060.56
2023-01-08T00:45:17.217Z,100055.25
2023-01-08T00:47:43.752Z,100055.19
2023-01-08T00:50:10.676Z,100050.84
2023-01-08T00:52:37.243Z,100046.41
2023-01-08T00:55:04.009Z,100045.44
2023-01-08T00:57:35.137Z,100045.50
2023-01-08T01:00:01.933Z,100046.41
2023-01-08T01:02:28.456Z,100042.88
2023-01-08T01:04:55.007Z,100033.94
2023-01-08T01:07:21.556Z,100042.81
2023-01-08T01:09:48.140Z,100021.59
2023-01-08T01:12:14.690Z,100039.25
2023-01-08T01:14:41.222Z,100027.66
2023-01-08T01:17:07.783Z,100033.94
2023-01-08T01:19:34.317Z,100042.81
2023-01-08T01:22:00.910Z,100034.91
2023-01-08T01:24:27.844Z,100030.44
2023-01-08T01:26:56.390Z,100038.44
2023-01-08T01:29:23.574Z,100037.47
2023-01-08T01:31:50.131Z,100033.09
2023-01-08T01:34:16.970Z,100035.72
2023-01-08T01:36:43.503Z,100038.47
2023-01-08T01:39:10.153Z,100036.72
2023-01-08T01:41:37.796Z,100043.00
2023-01-08T01:44:35.384Z,100040.38
2023-01-08T01:47:11.438Z,100048.28
2023-01-08T01:49:39.155Z,100048.28
2023-01-08T01:52:06.200Z,100059.09
2023-01-08T01:54:32.743Z,100052.81
2023-01-08T01:57:00.113Z,100060.06
2023-01-08T01:59:26.670Z,100060.91
2023-01-08T02:01:53.835Z,100060.91
2023-01-08T02:04:20.519Z,100064.50
2023-01-08T02:06:49.352Z,100068.00
2023-01-08T02:09:34.072Z,100067.94
2023-01-08T02:12:18.856Z,100069.91
2023-01-08T02:15:11.420Z,100067.19
2023-01-08T02:18:09.294Z,100057.50
2023-01-08T02:20:58.848Z,100048.59
2023-01-08T02:23:27.673Z,100063.81
2023-01-08T02:26:13.133Z,100063.66
2023-01-08T02:29:03.402Z,100060.13
2023-01-08T02:31:31.393Z,100058.41
2023-01-08T02:33:58.349Z,100052.19
2023-01-08T02:36:37.063Z,100041.56
2023-01-08T02:39:15.271Z,100064.63
2023-01-08T02:42:11.693Z,100054.13
2023-01-08T02:44:59.123Z,100066.50
2023-01-08T02:47:45.435Z,100069.13
2023-01-08T02:50:22.391Z,100064.78
2023-01-08T02:53:14.306Z,100058.50
2023-01-08T02:55:43.230Z,100059.31
2023-01-08T02:58:10.630Z,100056.00
2023-01-08T03:00:37.932Z,100062.97
2023-01-08T03:03:22.679Z,100054.13
2023-01-08T03:05:53.996Z,100049.66
2023-01-08T03:08:21.542Z,100049.72
2023-01-08T03:11:02.301Z,100054.84
2023-01-08T03:13:39.806Z,100052.19
2023-01-08T03:16:11.569Z,100043.38
2023-01-08T03:18:45.803Z,100042.34
2023-01-08T03:21:13.753Z,100052.22
2023-01-08T03:23:41.490Z,100035.28
2023-01-08T03:26:08.499Z,100040.81
2023-01-08T03:28:38.194Z,100045.13
2023-01-08T03:31:06.004Z,100045.19
2023-01-08T03:33:33.069Z,100043.34
2023-01-08T03:36:01.510Z,100046.22
2023-01-08T03:38:32.786Z,100047.00
2023-01-08T03:41:08.813Z,100052.19
2023-01-08T03:43:35.383Z,100047.78
2023-01-08T03:46:03.791Z,100052.44
2023-01-08T03:48:31.485Z,100061.34
2023-01-08T03:50:58.013Z,100055.94
2023-01-08T03:53:24.669Z,100050.75
2023-01-08T03:55:51.208Z,100048.91
2023-01-08T03:58:17.776Z,100035.38
2023-01-08T04:00:44.344Z,100032.84
2023-01-08T04:03:10.925Z,100037.34
2023-01-08T04:05:37.491Z,100023.94
2023-01-08T04:08:04.162Z,100031.13
2023-01-08T04:10:30.706Z,100028.44
2023-01-08T04:12:57.231Z,100017.81
2023-01-08T04:15:23.777Z,100022.28
2023-01-08T04:17:50.449Z,100015.19
2023-01-08T04:20:17.139Z,100017.00
2023-01-08T04:22:43.735Z,100018.72
2023-01-08T04:25:10.402Z,100019.59
2023-01-08T04:27:37.123Z,100015.13
2023-01-08T04:30:04.779Z,100026.72
2023-01-08T04:32:31.318Z,100023.97
2023-01-08T04:34:57.848Z,100011.63
2023-01-08T04:37:24.441Z,100015.19
2023-01-08T04:39:51.000Z,100024.06
2023-01-08T04:42:17.541Z,100025.88
2023-01-08T04:44:44.071Z,100018.88
2023-01-08T04:47:10.640Z,100015.38
2023-01-08T04:49:37.198Z,100009.91
2023-01-08T04:52:03.914Z,100007.28
2023-01-08T04:54:30.430Z,99997.41
2023-01-08T04:56:56.988Z,99995.59
2023-01-08T04:59:23.528Z,100000.03
2023-01-08T05:01:50.168Z,100000.19
2023-01-08T05:04:16.848Z,99995.75
2023-01-08T05:06:43.375Z,99992.25
2023-01-08T05:09:09.966Z,99980.81
2023-01-08T05:11:37.375Z,99978.00
2023-01-08T05:14:04.372Z,99977.19
2023-01-08T05:16:32.079Z,99974.56
2023-01-08T05:18:58.662Z,99965.66
2023-01-08T05:21:25.490Z,99979.91
2023-01-08T05:23:52.015Z,99994.22
2023-01-08T05:26:19.394Z,99978.09
2023-01-08T05:28:46.162Z,99981.66
2023-01-08T05:31:14.369Z,99987.94
2023-01-08T05:33:40.952Z,99970.88
2023-01-08T05:36:09.204Z,99972.88
2023-01-08T05:38:35.890Z,99975.53
2023-01-08T05:41:02.589Z,99981.72
2023-01-08T05:43:29.470Z,99971.00
2023-01-08T05:46:01.334Z,99969.16
2023-01-08T05:48:29.000Z,99974.63
2023-01-08T05:50:56.045Z,99968.31
2023-01-08T05:53:22.714Z,99962.22
2023-01-08T05:55:49.262Z,99971.13
2023-01-08T05:58:19.091Z,99973.75
2023-01-08T06:00:45.773Z,99974.69
2023-01-08T06:03:12.422Z,99980.97
2023-01-08T06:05:39.037Z,99988.03
2023-01-08T06:08:07.751Z,99972.94
2023-01-08T06:10:35.120Z,99972.88
2023-01-08T06:13:01.666Z,99976.50
2023-01-08T06:15:28.209Z,99980.06
2023-01-08T06:17:54.764Z,99976.50
2023-01-08T06:20:21.292Z,99978.38
2023-01-08T06:22:47.823Z,99972.09
2023-01-08T06:25:14.617Z,99972.06
2023-01-08T06:27:41.233Z,99964.16
2023-01-08T06:30:08.244Z,99973.78
2023-01-08T06:32:34.871Z,99968.53
2023-01-08T06:35:01.395Z,99965.91
2023-01-08T06:37:27.943Z,99975.72
2023-01-08T06:39:54.553Z,99983.84
2023-01-08T06:42:21.145Z,99980.16
2023-01-08T06:44:47.685Z,99969.59
2023-01-08T06:47:14.276Z,99968.75
2023-01-08T06:49:41.122Z,99965.91
2023-01-08T06:52:07.662Z,99965.13
2023-01-08T06:54:34.197Z,99971.38
2023-01-08T06:57:00.920Z,99968.59
2023-01-08T06:59:27.620Z,99965.91
2023-01-08T07:01:54.397Z,99965.13
2023-01-08T07:04:21.139Z,99964.09
2023-01-08T07:06:47.874Z,99965.22
2023-01-08T07:09:15.092Z,99973.06
2023-01-08T07:11:42.307Z,99970.34
2023-01-08T07:14:08.986Z,99966.94
2023-01-08T07:16:35.993Z,99980.28
2023-01-08T07:19:02.592Z,99967.88
2023-01-08T07:21:29.264Z,99967.88
2023-01-08T07:23:55.797Z,99972.97
2023-01-08T07:26:22.451Z,99967.34
2023-01-08T07:28:49.000Z,99973.44
2023-01-08T07:31:15.590Z,99964.03
2023-01-08T07:33:42.150Z,99976.47
2023-01-08T07:36:09.074Z,99972.72
2023-01-08T07:38:35.637Z,99982.50
2023-01-08T07:41:02.269Z,99975.50
2023-01-08T07:43:30.145Z,99972.63
2023-01-08T07:45:57.667Z,99976.97
2023-01-08T07:48:24.264Z,99977.09
2023-01-08T07:50:50.859Z,99976.13
2023-01-08T07:53:17.870Z,99979.66
2023-01-08T07:55:44.543Z,99976.06
2023-01-08T07:58:12.944Z,99975.16
2023-01-08T08:00:39.930Z,99978.59
2023-01-08T08:03:08.187Z,99972.63
2023-01-08T08:05:35.190Z,99975.16
2023-01-08T08:08:01.907Z,99979.47
2023-01-08T08:10:28.577Z,99968.97
2023-01-08T08:12:55.102Z,99970.00
2023-01-08T08:15:21.696Z,99968.19
2023-01-08T08:17:48.734Z,99970.88
2023-01-08T08:20:15.568Z,99965.66
2023-01-08T08:22:42.097Z,99967.47
2023-01-08T08:25:09.209Z,99971.06
2023-01-08T08:27:35.989Z,99967.44
2023-01-08T08:30:02.566Z,99970.16
2023-01-08T08:32:29.108Z,99970.06
2023-01-08T08:34:55.894Z,99969.19
2023-01-08T08:37:22.533Z,99964.72
2023-01-08T08:39:49.074Z,99959.50
2023-01-08T08:42:15.627Z,99949.78
2023-01-08T08:44:43.047Z,99948.94
2023-01-08T08:47:09.896Z,99961.69
2023-01-08T08:49:40.012Z,99952.69
2023-01-08T08:52:06.702Z,99945.72
2023-01-08T08:54:33.255Z,99945.72
2023-01-08T08:56:59.774Z,99948.47
2023-01-08T08:59:26.298Z,99947.72
2023-01-08T09:01:52.936Z,99953.03
2023-01-08T09:04:19.620Z,99947.75
2023-01-08T09:06:46.159Z,99957.59
2023-01-08T09:09:12.738Z,99954.91
2023-01-08T09:11:39.313Z,99941.56
2023-01-08T09:14:05.850Z,99940.16
2023-01-08T09:16:33.144Z,99944.97
2023-01-08T09:18:59.734Z,99933.25
2023-01-08T09:21:26.265Z,99938.72
2023-01-08T09:23:52.807Z,99942.28
2023-01-08T09:26:19.421Z,99940.63
2023-01-08T09:28:45.958Z,99944.22
2023-01-08T09:31:12.604Z,99952.00
2023-01-08T09:33:39.254Z,99942.28
2023-01-08T09:36:10.521Z,99942.28
2023-01-08T09:38:37.112Z,99938.66
2023-01-08T09:41:43.012Z,99938.44
2023-01-08T09:44:14.299Z,99944.69
2023-01-08T09:46:41.306Z,99944.59
2023-01-08T09:49:12.101Z,99941.97
2023-01-08T09:51:39.220Z,99943.59
2023-01-08T09:54:07.728Z,99940.69
2023-01-08T09:56:35.526Z,99945.06
2023-01-08T09:59:04.008Z,99944.84
2023-01-08T10:01:41.007Z,99937.63
2023-01-08T10:04:17.798Z,99941.75
2023-01-08T10:07:12.139Z,99940.91
2023-01-08T10:09:40.412Z,99941.84
2023-01-08T10:12:07.579Z,99942.34
2023-01-08T10:14:37.757Z,99941.53
2023-01-08T10:17:25.759Z,99943.00
2023-01-08T10:19:52.309Z,99935.03
2023-01-08T10:22:22.809Z,99930.38
2023-01-08T10:24:51.319Z,99932.78
2023-01-08T10:27:21.539Z,99919.16
2023-01-08T10:29:50.790Z,99916.25
2023-01-08T10:32:19.801Z,99916.19
2023-01-08T10:34:49.485Z,99921.38
2023-01-08T10:37:37.471Z,99914.81
2023-01-08T10:40:17.949Z,99911.31
2023-01-08T10:42:44.530Z,99905.09
2023-01-08T10:45:18.975Z,99903.16
2023-01-08T10:47:48.013Z,99900.47
2023-01-08T10:50:29.702Z,99898.66
2023-01-08T10:53:00.709Z,99891.50
2023-01-08T10:55:28.503Z,99892.13
2023-01-08T10:58:03.864Z,99886.78
2023-01-08T11:00:32.948Z,99892.13
2023-01-08T11:03:01.989Z,99884.97
2023-01-08T11:05:33.370Z,99881.19
2023-01-08T11:08:01.319Z,99885.75
2023-01-08T11:10:28.897Z,99892.13
2023-01-08T11:13:00.466Z,99882.09
2023-01-08T11:15:30.397Z,99881.25
2023-01-08T11:18:17.707Z,99882.00
2023-01-08T11:20:44.663Z,99886.53
2023-01-08T11:23:18.111Z,99891.69
2023-01-08T11:25:45.484Z,99882.84
2023-01-08T11:28:17.086Z,99875.84
2023-01-08T11:30:50.232Z,99872.22
2023-01-08T11:33:21.395Z,99875.91
2023-01-08T11:35:56.356Z,99868.91
2023-01-08T11:38:22.887Z,99868.28
2023-01-08T11:41:16.958Z,99869.19
2023-01-08T11:43:43.307Z,99858.56
2023-01-08T11:46:42.743Z,99853.00
2023-01-08T11:49:28.289Z,99848.59
2023-01-08T11:52:31.992Z,99844.22
2023-01-08T11:55:21.878Z,99840.41
2023-01-08T11:57:59.338Z,99831.44
2023-01-08T12:00:54.589Z,99830.16
2023-01-08T12:03:30.982Z,99830.81
2023-01-08T12:06:34.046Z,99819.75
2023-01-08T12:09:16.478Z,99816.91
2023-01-08T12:11:58.799Z,99804.97
2023-01-08T12:14:49.122Z,99811.63
2023-01-08T12:17:37.794Z,99802.56
2023-01-08T12:20:38.059Z,99804.22
2023-01-08T12:23:25.874Z,99797.31
2023-01-08T12:25:59.526Z,99801.31
2023-01-08T12:28:37.930Z,99800.53
2023-01-08T12:31:35.453Z,99778.88
2023-01-08T12:34:25.083Z,99798.22
2023-01-08T12:36:54.322Z,99787.53
2023-01-08T12:39:31.005Z,99792.38
2023-01-08T12:42:07.469Z,99771.06
2023-01-08T12:44:34.612Z,99775.28
2023-01-08T12:47:02.656Z,99778.69
2023-01-08T12:49:35.982Z,99774.69
2023-01-08T12:52:25.769Z,99771.38
2023-01-08T12:55:03.199Z,99774.91
2023-01-08T12:57:39.349Z,99778.22
2023-01-08T13:00:12.713Z,99774.03
2023-01-08T13:03:01.546Z,99776.09
2023-01-08T13:05:28.051Z,99765.88
2023-01-08T13:07:57.513Z,99759.66
2023-01-08T13:10:29.322Z,99754.97
2023-01-08T13:12:57.569Z,99751.56
2023-01-08T13:15:26.196Z,99748.19
2023-01-08T13:18:16.651Z,99758.69
2023-01-08T13:20:43.225Z,99756.00
2023-01-08T13:23:23.875Z,99747.78
2023-01-08T13:26:04.109Z,99745.28
2023-01-08T13:28:36.694Z,99736.44
2023-01-08T13:31:15.334Z,99735.44
2023-01-08T13:33:43.243Z,99733.75
2023-01-08T13:36:18.883Z,99737.47
2023-01-08T13:38:45.519Z,99735.72
2023-01-08T13:41:24.661Z,99732.19
2023-01-08T13:44:14.655Z,99727.84
2023-01-08T13:46:41.427Z,99717.81
2023-01-08T13:49:33.966Z,99709.16
2023-01-08T13:52:00.555Z,99712.66
2023-01-08T13:54:47.343Z,99710.00
2023-01-08T13:57:16.177Z,99702.03
2023-01-08T13:59:48.768Z,99706.53
2023-01-08T14:02:42.498Z,99700.28
2023-01-08T14:05:23.059Z,99697.75
2023-01-08T14:07:49.846Z,99697.69
2023-01-08T14:10:17.402Z,99683.44
2023-01-08T14:12:44.617Z,99697.88
2023-01-08T14:15:35.733Z,99691.75
2023-01-08T14:18:02.772Z,99693.59
2023-01-08T14:20:32.716Z,99689.06
2023-01-08T14:23:00.744Z,99694.56
2023-01-08T14:25:27.592Z,99690.19
2023-01-08T14:27:55.735Z,99691.03
2023-01-08T14:30:22.422Z,99697.09
2023-01-08T14:32:49.220Z,99689.16
2023-01-08T14:35:21.325Z,99683.78
2023-01-08T14:37:47.860Z,99695.16
2023-01-08T14:40:16.069Z,99691.56
2023-01-08T14:42:46.664Z,99690.69
2023-01-08T14:45:32.339Z,99689.59
2023-01-08T14:48:09.749Z,99690.56
2023-01-08T14:50:38.697Z,99690.47
2023-01-08T14:53:47.409Z,99693.19
2023-01-08T14:56:16.624Z,99683.44
2023-01-08T14:58:45.006Z,99691.34
2023-01-08T15:01:20.555Z,99684.34
2023-01-08T15:03:48.487Z,99673.53
2023-01-08T15:06:26.197Z,99673.53
2023-01-08T15:08:52.871Z,99678.88
2023-01-08T15:11:19.376Z,99665.50
2023-01-08T15:13:47.572Z,99671.97
2023-01-08T15:16:28.857Z,99665.66
2023-01-08T15:19:11.861Z,99665.00
2023-01-08T15:21:38.739Z,99663.25
2023-01-08T15:24:06.442Z,99657.81
2023-01-08T15:26:33.347Z,99661.28
2023-01-08T15:29:00.673Z,99660.34
2023-01-08T15:31:53.586Z,99662.81
2023-01-08T15:34:20.645Z,99650.28
2023-01-08T15:36:47.871Z,99658.16
2023-01-08T15:39:14.433Z,99653.38
2023-01-08T15:41:59.414Z,99652.44
2023-01-08T15:44:25.967Z,99659.38
2023-01-08T15:46:52.861Z,99652.00
2023-01-08T15:49:19.612Z,99660.13
2023-01-08T15:51:50.126Z,99658.28
2023-01-08T15:54:17.056Z,99650.19
2023-01-08T15:56:43.777Z,99640.38
2023-01-08T15:59:11.790Z,99644.91
2023-01-08T16:01:38.670Z,99638.72
2023-01-08T16:04:05.370Z,99637.69
2023-01-08T16:06:32.046Z,99631.41
2023-01-08T16:09:00.390Z,99631.41
2023-01-08T16:11:27.318Z,99630.53
2023-01-08T16:13:54.541Z,99626.16
2023-01-08T16:16:21.457Z,99619.97
2023-01-08T16:18:48.071Z,99623.47
2023-01-08T16:21:14.632Z,99615.56
2023-01-08T16:23:41.223Z,99611.84
2023-01-08T16:26:10.032Z,99617.19
2023-01-08T16:28:36.684Z,99610.03
2023-01-08T16:31:03.657Z,99614.44
2023-01-08T16:33:30.367Z,99610.97
2023-01-08T16:36:01.483Z,99618.19
2023-01-08T16:38:28.694Z,99611.84
2023-01-08T16:40:58.396Z,99611.09
2023-01-08T16:43:25.908Z,99607.56
2023-01-08T16:45:52.480Z,99605.06
2023-01-08T16:48:19.129Z,99613.81
2023-01-08T16:50:45.743Z,99610.22
2023-01-08T16:53:12.846Z,99604.03
2023-01-08T16:55:40.678Z,99608.47
2023-01-08T16:58:08.369Z,99605.88
2023-01-08T17:00:36.461Z,99611.31
2023-01-08T17:03:04.285Z,99605.06
2023-01-08T17:05:31.206Z,99606.94
2023-01-08T17:07:57.782Z,99604.19
2023-01-08T17:10:25.918Z,99592.63
2023-01-08T17:12:52.609Z,99599.81
2023-01-08T17:15:19.286Z,99596.22
2023-01-08T17:17:45.817Z,99599.59
2023-01-08T17:20:12.570Z,99606.09
2023-01-08T17:22:39.113Z,99600.69
2023-01-08T17:25:05.997Z,99597.09
2023-01-08T17:27:35.415Z,99597.03
2023-01-08T17:30:02.230Z,99594.69
2023-01-08T17:32:32.289Z,99587.28
2023-01-08T17:34:58.884Z,99585.53
2023-01-08T17:37:25.413Z,99582.88
2023-01-08T17:39:51.940Z,99580.88
2023-01-08T17:42:24.317Z,99584.41
2023-01-08T17:44:51.525Z,99579.81
2023-01-08T17:47:19.834Z,99575.97
2023-01-08T17:49:53.603Z,99571.97
2023-01-08T17:52:21.654Z,99579.59
2023-01-08T17:54:49.409Z,99583.19
2023-01-08T17:57:17.075Z,99585.25
2023-01-08T17:59:44.473Z,99581.91
2023-01-08T18:02:14.907Z,99581.91
2023-01-08T18:04:43.854Z,99578.31
2023-01-08T18:07:10.458Z,99572.53
2023-01-08T18:09:37.063Z,99582.22
2023-01-08T18:12:03.824Z,99574.31
2023-01-08T18:14:30.400Z,99564.72
2023-01-08T18:16:56.982Z,99571.06
2023-01-08T18:19:26.104Z,99566.47
2023-01-08T18:21:52.765Z,99558.41
2023-01-08T18:24:19.293Z,99561.13
2023-01-08T18:26:46.615Z,99556.81
2023-01-08T18:29:13.408Z,99546.94
2023-01-08T18:31:40.452Z,99540.03
2023-01-08T18:34:08.840Z,99541.78
2023-01-08T18:36:36.670Z,99534.59
2023-01-08T18:39:03.543Z,99538.41
2023-01-08T18:41:48.488Z,99526.06
2023-01-08T18:44:15.043Z,99512.56
2023-01-08T18:46:41.613Z,99512.56
2023-01-08T18:49:08.175Z,99502.94
2023-01-08T18:51:34.818Z,99504.13
2023-01-08T18:54:03.009Z,99501.38
2023-01-08T18:56:34.664Z,99502.16
2023-01-08T18:59:02.377Z,99495.94
2023-01-08T19:01:29.553Z,99490.78
2023-01-08T19:03:56.391Z,99495.34
2023-01-08T19:06:23.518Z,99486.41
2023-01-08T19:08:50.551Z,99478.47
2023-01-08T19:11:17.226Z,99473.13
2023-01-08T19:13:44.169Z,99473.03
2023-01-08T19:16:13.388Z,99454.31
2023-01-08T19:18:40.375Z,99462.44
2023-01-08T19:21:08.570Z,99457.38
2023-01-08T19:23:35.224Z,99453.78
2023-01-08T19:26:06.603Z,99456.31
2023-01-08T19:28:33.233Z,99437.66
2023-01-08T19:31:00.421Z,99444.63
2023-01-08T19:33:27.049Z,99447.56
2023-01-08T19:35:53.568Z,99430.00
2023-01-08T19:38:20.379Z,99429.09
2023-01-08T19:40:46.935Z,99437.81
2023-01-08T19:43:32.023Z,99427.28
2023-01-08T19:46:06.096Z,99422.13
2023-01-08T19:48:32.918Z,99419.53
2023-01-08T19:50:59.991Z,99406.97
2023-01-08T19:53:26.567Z,99408.78
2023-01-08T19:55:53.096Z,99405.28
2023-01-08T19:58:20.470Z,99400.75
2023-01-08T20:00:47.092Z,99395.50
2023-01-08T20:03:13.754Z,99400.84
2023-01-08T20:05:41.628Z,99403.50
2023-01-08T20:08:08.173Z,99399.00
2023-01-08T20:10:34.697Z,99396.25
2023-01-08T20:13:01.216Z,99398.91
2023-01-08T20:15:29.015Z,99394.66
2023-01-08T20:17:55.667Z,99388.53
2023-01-08T20:20:22.228Z,99384.22
2023-01-08T20:22:48.753Z,99390.38
2023-01-08T20:25:15.280Z,99381.44
2023-01-08T20:27:41.862Z,99380.78
2023-01-08T20:30:10.341Z,99380.81
2023-01-08T20:32:37.183Z,99382.41
2023-01-08T20:35:04.792Z,99369.31
2023-01-08T20:37:31.525Z,99364.84
2023-01-08T20:39:58.059Z,99365.81
2023-01-08T20:42:33.504Z,99367.47
2023-01-08T20:45:00.783Z,99364.91
2023-01-08T20:47:27.479Z,99355.91
2023-01-08T20:49:54.023Z,99356.91
2023-01-08T20:52:20.707Z,99352.38
2023-01-08T20:54:47.273Z,99348.75
2023-01-08T20:57:13.855Z,99348.00
2023-01-08T20:59:40.465Z,99343.59
2023-01-08T21:02:07.120Z,99341.91
2023-01-08T21:04:33.769Z,99340.94
2023-01-08T21:07:00.312Z,99337.53
2023-01-08T21:09:26.932Z,99327.63
2023-01-08T21:11:53.535Z,99323.97
2023-01-08T21:14:20.116Z,99325.31
2023-01-08T21:16:46.747Z,99314.53
2023-01-08T21:19:15.411Z,99307.34
2023-01-08T21:21:42.181Z,99303.19
2023-01-08T21:24:11.104Z,99302.31
2023-01-08T21:26:39.042Z,99302.31
2023-01-08T21:29:06.721Z,99300.38
2023-01-08T21:31:35.331Z,99288.91
2023-01-08T21:34:02.807Z,99276.41
2023-01-08T21:36:31.499Z,99280.97
2023-01-08T21:38:59.420Z,99277.47
2023-01-08T21:41:47.267Z,99277.47
2023-01-08T21:44:38.533Z,99274.09
2023-01-08T21:47:07.133Z,99272.22
2023-01-08T21:49:35.801Z,99268.75
2023-01-08T21:52:21.109Z,99267.91
2023-01-08T21:54:47.657Z,99270.66
2023-01-08T21:57:14.195Z,99265.47
2023-01-08T21:59:40.722Z,99261.75
2023-01-08T22:02:07.587Z,99254.47
2023-01-08T22:04:34.131Z,99245.84
2023-01-08T22:07:00.702Z,99238.84
2023-01-08T22:09:27.242Z,99240.59
2023-01-08T22:11:55.338Z,99228.78
2023-01-08T22:14:21.874Z,99235.97
2023-01-08T22:16:48.462Z,99231.69
2023-01-08T22:19:15.046Z,99232.56
2023-01-08T22:21:41.589Z,99218.25
2023-01-08T22:24:08.151Z,99222.69
2023-01-08T22:26:35.545Z,99219.16
2023-01-08T22:29:03.339Z,99217.28
2023-01-08T22:31:29.956Z,99217.34
2023-01-08T22:33:56.936Z,99212.06
2023-01-08T22:36:23.527Z,99205.69
2023-01-08T22:38:50.092Z,99200.34
2023-01-08T22:41:21.625Z,99200.41
2023-01-08T22:43:48.506Z,99199.66
2023-01-08T22:46:16.326Z,99190.72
2023-01-08T22:48:44.148Z,99194.44
2023-01-08T22:51:11.261Z,99191.78
2023-01-08T22:53:37.912Z,99183.84
2023-01-08T22:56:12.497Z,99176.81
2023-01-08T22:58:40.673Z,99178.59
2023-01-08T23:01:11.972Z,99174.03
2023-01-08T23:03:42.934Z,99177.59
2023-01-08T23:06:11.886Z,99183.03
2023-01-08T23:08:39.870Z,99178.50
2023-01-08T23:11:07.303Z,99169.81
2023-01-08T23:13:35.107Z,99173.19
2023-01-08T23:16:02.233Z,99171.44
2023-01-08T23:18:29.021Z,99157.16
2023-01-08T23:21:03.634Z,99160.91
2023-01-08T23:23:30.438Z,99161.06
2023-01-08T23:25:57.243Z,99163.56
2023-01-08T23:28:23.850Z,99159.00
2023-01-08T23:30:50.376Z,99166.22
2023-01-08T23:33:16.900Z,99168.69
2023-01-08T23:35:43.431Z,99167.94
2023-01-08T23:38:09.982Z,99167.16
2023-01-08T23:40:36.549Z,99161.88
2023-01-08T23:43:03.088Z,99169.06
2023-01-08T23:45:29.711Z,99165.38
2023-01-08T23:47:56.258Z,99159.22
2023-01-08T23:50:22.813Z,99161.19
2023-01-08T23:52:49.363Z,99159.34
2023-01-08T23:55:16.046Z,99163.84
2023-01-08T23:57:42.591Z,99160.03
